createdAt,value
2022-08-16T00:02:51.767Z,100122.97
2022-08-16T00:07:56.422Z,100123.97
2022-08-16T00:13:04.512Z,100123.97
2022-08-16T00:18:07.410Z,100119.78
2022-08-16T00:23:12.557Z,100125.97
2022-08-16T00:28:18.264Z,100123.41
2022-08-16T00:33:21.838Z,100120.19
2022-08-16T00:38:41.262Z,100116.13
2022-08-16T00:43:46.106Z,100121.28
2022-08-16T00:48:51.587Z,100124.00
2022-08-16T00:53:54.862Z,100126.78
2022-08-16T00:58:57.645Z,100120.91
2022-08-16T01:04:03.410Z,100120.06
2022-08-16T01:09:08.520Z,100127.28
2022-08-16T01:14:20.165Z,100132.75
2022-08-16T01:19:30.691Z,100131.03
2022-08-16T01:24:55.399Z,100128.66
2022-08-16T01:30:20.459Z,100127.81
2022-08-16T01:35:30.560Z,100126.97
2022-08-16T01:40:38.473Z,100127.84
2022-08-16T01:45:41.451Z,100125.22
2022-08-16T01:51:09.100Z,100133.13
2022-08-16T01:56:24.843Z,100133.84
2022-08-16T02:01:30.123Z,100133.78
2022-08-16T02:06:35.455Z,100137.06
2022-08-16T02:11:48.643Z,100132.66
2022-08-16T02:16:57.137Z,100134.59
2022-08-16T02:22:08.319Z,100140.41
2022-08-16T02:27:22.535Z,100127.38
2022-08-16T02:32:48.867Z,100130.94
2022-08-16T02:37:52.701Z,100132.41
2022-08-16T02:42:58.339Z,100131.84
2022-08-16T02:48:29.550Z,100136.34
2022-08-16T02:53:26.313Z,100130.78
2022-08-16T02:58:29.143Z,100141.31
2022-08-16T03:04:29.300Z,100141.53
2022-08-16T03:08:58.576Z,100152.13
2022-08-16T03:14:07.881Z,100145.19
2022-08-16T03:19:11.778Z,100142.34
2022-08-16T03:24:29.127Z,100140.19
2022-08-16T03:29:34.451Z,100142.81
2022-08-16T03:34:40.540Z,100142.06
2022-08-16T03:39:43.491Z,100146.88
2022-08-16T03:44:49.317Z,100140.53
2022-08-16T03:49:54.400Z,100139.84
2022-08-16T03:54:59.394Z,100139.00
2022-08-16T04:00:35.182Z,100147.00
2022-08-16T04:05:44.121Z,100148.31
2022-08-16T04:10:48.249Z,100140.44
2022-08-16T04:15:55.729Z,100144.34
2022-08-16T04:20:59.460Z,100152.00
2022-08-16T04:26:07.096Z,100142.16
2022-08-16T04:31:20.074Z,100151.06
2022-08-16T04:36:24.431Z,100140.91
2022-08-16T04:41:32.266Z,100153.50
2022-08-16T04:47:02.749Z,100146.59
2022-08-16T04:52:00.582Z,100146.09
2022-08-16T04:57:06.369Z,100151.38
2022-08-16T05:02:40.973Z,100142.59
2022-08-16T05:07:32.053Z,100142.84
2022-08-16T05:12:39.348Z,100134.94
2022-08-16T05:17:48.563Z,100124.69
2022-08-16T05:23:02.924Z,100134.72
2022-08-16T05:28:05.829Z,100137.53
2022-08-16T05:33:16.440Z,100139.28
2022-08-16T05:38:32.744Z,100132.81
2022-08-16T05:43:46.790Z,100146.59
2022-08-16T05:49:05.644Z,100143.28
2022-08-16T05:54:14.728Z,100136.72
2022-08-16T05:59:18.622Z,100137.16
2022-08-16T06:04:36.506Z,100136.31
2022-08-16T06:09:46.794Z,100134.50
2022-08-16T06:14:51.395Z,100138.75
2022-08-16T06:19:56.334Z,100130.84
2022-08-16T06:24:59.228Z,100143.47
2022-08-16T06:30:03.363Z,100130.13
2022-08-16T06:35:08.211Z,100142.22
2022-08-16T06:40:12.932Z,100137.66
2022-08-16T06:45:29.181Z,100143.38
2022-08-16T06:50:41.043Z,100131.41
2022-08-16T06:55:45.414Z,100131.72
2022-08-16T07:00:50.855Z,100125.94
2022-08-16T07:05:54.113Z,100127.06
2022-08-16T07:11:02.936Z,100135.06
2022-08-16T07:16:15.482Z,100127.47
2022-08-16T07:21:20.568Z,100126.09
2022-08-16T07:26:25.984Z,100127.28
2022-08-16T07:31:37.875Z,100134.25
2022-08-16T07:36:45.758Z,100137.13
2022-08-16T07:42:02.576Z,100145.03
2022-08-16T07:47:11.246Z,100133.28
2022-08-16T07:52:20.058Z,100130.06
2022-08-16T07:57:24.766Z,100127.66
2022-08-16T08:02:30.754Z,100114.31
2022-08-16T08:07:33.677Z,100130.66
2022-08-16T08:12:39.589Z,100124.22
2022-08-16T08:17:45.238Z,100126.06
2022-08-16T08:22:52.393Z,100127.03
2022-08-16T08:28:03.501Z,100123.19
2022-08-16T08:33:06.464Z,100116.28
2022-08-16T08:38:16.520Z,100116.53
2022-08-16T08:43:41.596Z,100105.47
2022-08-16T08:48:59.462Z,100100.00
2022-08-16T08:54:06.533Z,100108.47
2022-08-16T08:59:13.445Z,100115.88
2022-08-16T09:04:24.275Z,100115.28
2022-08-16T09:09:33.886Z,100112.25
2022-08-16T09:14:49.519Z,100117.44
2022-08-16T09:19:59.409Z,100107.63
2022-08-16T09:25:11.233Z,100105.44
2022-08-16T09:30:33.286Z,100101.13
2022-08-16T09:35:42.347Z,100105.44
2022-08-16T09:40:47.152Z,100110.44
2022-08-16T09:45:50.377Z,100105.31
2022-08-16T09:50:57.597Z,100108.75
2022-08-16T09:56:00.131Z,100100.28
2022-08-16T10:01:03.548Z,100094.28
2022-08-16T10:06:07.152Z,100085.13
2022-08-16T10:11:32.481Z,100086.63
2022-08-16T10:17:00.023Z,100095.31
2022-08-16T10:22:05.702Z,100091.84
2022-08-16T10:27:21.691Z,100097.38
2022-08-16T10:32:32.176Z,100091.03
2022-08-16T10:37:36.541Z,100083.25
2022-08-16T10:42:39.044Z,100086.19
2022-08-16T10:47:43.657Z,100091.75
2022-08-16T10:52:46.645Z,100086.13
2022-08-16T10:57:54.678Z,100085.34
2022-08-16T11:03:01.297Z,100073.88
2022-08-16T11:08:04.851Z,100066.31
2022-08-16T11:18:48.302Z,100065.44
2022-08-16T11:23:58.040Z,100065.34
2022-08-16T11:29:16.754Z,100076.38
2022-08-16T11:34:21.094Z,100058.13
2022-08-16T11:39:23.658Z,100064.69
2022-08-16T11:44:52.777Z,100063.66
2022-08-16T11:49:49.109Z,100059.56
2022-08-16T11:54:56.886Z,100046.06
2022-08-16T12:00:02.549Z,100051.03
2022-08-16T12:05:15.734Z,100047.69
2022-08-16T12:10:19.553Z,100041.13
2022-08-16T12:15:23.033Z,100039.50
2022-08-16T12:20:27.911Z,100039.53
2022-08-16T12:25:32.877Z,100029.97
2022-08-16T12:30:39.328Z,100022.66
2022-08-16T12:35:44.863Z,100023.41
2022-08-16T12:40:52.987Z,100020.78
2022-08-16T12:46:00.016Z,100021.50
2022-08-16T12:51:10.861Z,100021.25
2022-08-16T12:56:25.326Z,100014.13
2022-08-16T13:01:29.719Z,100016.41
2022-08-16T13:06:33.730Z,100017.88
2022-08-16T13:11:41.384Z,100000.63
2022-08-16T13:16:43.906Z,99997.25
2022-08-16T13:21:47.375Z,100000.88
2022-08-16T13:26:53.441Z,99993.03
2022-08-16T13:31:56.288Z,99989.88
2022-08-16T13:36:58.732Z,99987.84
2022-08-16T13:42:03.260Z,99980.09
2022-08-16T13:47:06.076Z,99980.94
2022-08-16T13:52:10.250Z,99974.13
2022-08-16T13:57:13.063Z,99972.41
2022-08-16T14:02:16.011Z,99967.22
2022-08-16T14:07:24.430Z,99945.75
2022-08-16T14:12:28.848Z,99958.47
2022-08-16T14:18:01.720Z,99956.66
2022-08-16T14:22:54.729Z,99957.25
2022-08-16T14:27:57.242Z,99952.97
2022-08-16T14:33:00.144Z,99952.13
2022-08-16T14:38:02.831Z,99951.34
2022-08-16T14:43:07.316Z,99954.38
2022-08-16T14:48:10.874Z,99949.38
2022-08-16T14:53:14.075Z,99957.13
2022-08-16T14:58:20.304Z,99952.28
2022-08-16T15:03:38.377Z,99950.75
2022-08-16T15:08:47.015Z,99947.16
2022-08-16T15:13:49.910Z,99946.06
2022-08-16T15:18:54.843Z,99938.72
2022-08-16T15:23:57.832Z,99932.56
2022-08-16T15:29:00.189Z,99930.41
2022-08-16T15:34:02.567Z,99922.03
2022-08-16T15:39:31.791Z,99937.69
2022-08-16T15:44:27.963Z,99931.75
2022-08-16T15:49:37.196Z,99928.03
2022-08-16T15:54:52.340Z,99931.50
2022-08-16T16:00:04.620Z,99937.22
2022-08-16T16:05:19.509Z,99932.06
2022-08-16T16:10:22.084Z,99932.44
2022-08-16T16:15:35.573Z,99915.94
2022-08-16T16:20:39.783Z,99935.84
2022-08-16T16:25:44.716Z,99938.91
2022-08-16T16:30:47.367Z,99934.88
2022-08-16T16:35:55.524Z,99941.31
2022-08-16T16:41:00.703Z,99944.22
2022-08-16T16:46:38.958Z,99946.41
2022-08-16T16:51:28.650Z,99950.78
2022-08-16T16:56:37.610Z,99959.19
2022-08-16T17:01:59.285Z,99958.03
2022-08-16T17:07:10.516Z,99963.25
2022-08-16T17:17:59.442Z,99970.16
2022-08-16T17:22:59.253Z,99963.34
2022-08-16T17:28:58.920Z,99975.53
2022-08-16T17:33:27.021Z,99970.03
2022-08-16T17:38:44.572Z,99970.09
2022-08-16T17:39:27.668Z,99967.09
2022-08-16T17:43:48.467Z,99964.19
2022-08-16T17:48:51.009Z,99966.69
2022-08-16T17:53:53.857Z,99960.63
2022-08-16T17:58:56.576Z,99965.75
2022-08-16T18:04:06.764Z,99969.66
2022-08-16T18:09:14.914Z,99966.28
2022-08-16T18:14:19.029Z,99968.72
2022-08-16T18:19:41.551Z,99968.47
2022-08-16T18:24:44.137Z,99973.94
2022-08-16T18:29:48.645Z,99967.63
2022-08-16T18:34:54.531Z,99962.09
2022-08-16T18:39:58.137Z,99963.06
2022-08-16T18:45:01.596Z,99951.94
2022-08-16T18:50:05.709Z,99950.28
2022-08-16T18:55:14.097Z,99944.53
2022-08-16T19:00:19.083Z,99949.94
2022-08-16T19:05:23.698Z,99941.50
2022-08-16T19:10:26.800Z,99937.66
2022-08-16T19:15:29.349Z,99943.81
2022-08-16T19:20:31.792Z,99945.13
2022-08-16T19:25:46.712Z,99942.28
2022-08-16T19:30:51.085Z,99941.44
2022-08-16T19:35:53.513Z,99944.28
2022-08-16T19:40:55.868Z,99942.88
2022-08-16T19:45:58.223Z,99947.47
2022-08-16T19:51:00.665Z,99935.94
2022-08-16T19:56:03.157Z,99936.44
2022-08-16T20:01:05.594Z,99941.72
2022-08-16T20:06:08.040Z,99936.34
2022-08-16T20:11:13.928Z,99929.19
2022-08-16T20:16:16.492Z,99932.84
2022-08-16T20:21:19.596Z,99939.66
2022-08-16T20:26:24.843Z,99929.53
2022-08-16T20:31:27.516Z,99935.88
2022-08-16T20:36:30.054Z,99937.69
2022-08-16T20:41:32.602Z,99936.06
2022-08-16T20:46:34.945Z,99940.69
2022-08-16T20:51:49.624Z,99940.59
2022-08-16T20:56:53.589Z,99949.22
2022-08-16T21:01:56.877Z,99945.13
2022-08-16T21:06:59.558Z,99940.41
2022-08-16T21:12:04.842Z,99940.59
2022-08-16T21:17:09.211Z,99938.28
2022-08-16T21:22:16.606Z,99945.66
2022-08-16T21:27:19.134Z,99949.69
2022-08-16T21:32:34.660Z,99944.84
2022-08-16T21:37:38.655Z,99948.72
2022-08-16T21:42:41.990Z,99943.13
2022-08-16T21:47:44.393Z,99943.47
2022-08-16T21:52:46.838Z,99942.91
2022-08-16T21:57:49.296Z,99934.50
2022-08-16T22:02:54.269Z,99936.56
2022-08-16T22:08:01.253Z,99929.00
2022-08-16T22:13:05.236Z,99930.94
2022-08-16T22:18:07.689Z,99933.13
2022-08-16T22:23:14.824Z,99932.75
2022-08-16T22:28:18.088Z,99936.66
2022-08-16T22:33:21.990Z,99936.06
2022-08-16T22:38:53.918Z,99944.25
2022-08-16T22:43:46.846Z,99945.53
2022-08-16T22:48:51.854Z,99941.59
2022-08-16T22:53:54.807Z,99943.81
2022-08-16T22:58:57.297Z,99945.34
2022-08-16T23:03:59.702Z,99955.19
2022-08-16T23:09:02.124Z,99952.06
2022-08-16T23:14:04.580Z,99948.88
2022-08-16T23:19:08.908Z,99945.44
2022-08-16T23:24:11.995Z,99949.97
2022-08-16T23:29:23.267Z,99948.53
2022-08-16T23:34:29.770Z,99947.06
2022-08-16T23:39:32.388Z,99941.00
2022-08-16T23:44:44.135Z,99952.97
2022-08-16T23:50:03.475Z,99950.41
2022-08-16T23:55:07.169Z,99954.06
